Terminal Aerodrome Forecast
Issued by NWS Twin Cities, MN

Home | Current Version | Previous Version | Graphics & Text | Print | Product List | Glossary On
Versions: 1 2 3 4 5 6 7 8 9 10 11 12 13 14 15 16 17 18 19 20 21 22 23 24 25 26 27
000
FTUS43 KMPX 240229 AAA
TAFSTC
TAF AMD
KSTC 240229Z 2403/2424 18007KT P6SM VCSH SCT040 BKN070
      TEMPO 2402/2404 4SM -TSRA BKN035CB
     FM240400 19004KT P6SM BKN100
     FM240600 VRB03KT 4SM BR SCT100
     FM241400 VRB04KT P6SM SCT200=

USA.gov is the U.S. government's official web portal to all federal, state and local government web resources and services.